sensor_id;sensor_type;location;lat;lon;timestamp;pressure;altitude;pressure_sealevel;temperature;humidity
69574;BME280;62840;52.366;5.980;2023-12-20T00:01:16;101391.97;;;7.23;77.05
69574;BME280;62840;52.366;5.980;2023-12-20T00:03:41;101396.34;;;7.24;76.95
69574;BME280;62840;52.366;5.980;2023-12-20T00:06:08;101391.97;;;7.23;76.89
69574;BME280;62840;52.366;5.980;2023-12-20T00:08:36;101384.97;;;7.22;76.76
69574;BME280;62840;52.366;5.980;2023-12-20T00:11:03;101376.25;;;7.20;76.85
69574;BME280;62840;52.366;5.980;2023-12-20T00:13:29;101381.72;;;7.17;76.76
69574;BME280;62840;52.366;5.980;2023-12-20T00:15:55;101380.03;;;7.16;76.81
69574;BME280;62840;52.366;5.980;2023-12-20T00:18:20;101379.34;;;7.12;76.67
69574;BME280;62840;52.366;5.980;2023-12-20T00:20:46;101379.53;;;7.09;76.62
69574;BME280;62840;52.366;5.980;2023-12-20T00:23:12;101381.50;;;7.06;76.75
69574;BME280;62840;52.366;5.980;2023-12-20T00:25:41;101368.53;;;7.01;76.65
69574;BME280;62840;52.366;5.980;2023-12-20T00:28:06;101365.22;;;6.98;76.72
69574;BME280;62840;52.366;5.980;2023-12-20T00:30:33;101368.81;;;6.97;76.61
69574;BME280;62840;52.366;5.980;2023-12-20T00:32:59;101369.00;;;6.93;76.66
69574;BME280;62840;52.366;5.980;2023-12-20T00:35:25;101367.47;;;6.89;76.68
69574;BME280;62840;52.366;5.980;2023-12-20T00:37:50;101371.22;;;6.85;76.51
69574;BME280;62840;52.366;5.980;2023-12-20T00:40:16;101367.16;;;6.80;76.63
69574;BME280;62840;52.366;5.980;2023-12-20T00:42:45;101364.59;;;6.78;76.75
69574;BME280;62840;52.366;5.980;2023-12-20T00:45:11;101373.66;;;6.74;76.48
69574;BME280;62840;52.366;5.980;2023-12-20T00:47:36;101367.69;;;6.70;76.64
69574;BME280;62840;52.366;5.980;2023-12-20T00:50:03;101366.25;;;6.65;76.60
69574;BME280;62840;52.366;5.980;2023-12-20T00:52:29;101366.50;;;6.60;76.39
69574;BME280;62840;52.366;5.980;2023-12-20T00:54:55;101364.13;;;6.56;76.65
69574;BME280;62840;52.366;5.980;2023-12-20T00:57:21;101360.88;;;6.50;76.59
69574;BME280;62840;52.366;5.980;2023-12-20T00:59:50;101359.34;;;6.46;76.60
69574;BME280;62840;52.366;5.980;2023-12-20T01:02:15;101367.56;;;6.42;76.67
69574;BME280;62840;52.366;5.980;2023-12-20T01:04:41;101367.81;;;6.37;76.51
69574;BME280;62840;52.366;5.980;2023-12-20T01:07:07;101357.50;;;6.33;76.62
69574;BME280;62840;52.366;5.980;2023-12-20T01:09:33;101356.78;;;6.29;76.54
69574;BME280;62840;52.366;5.980;2023-12-20T01:11:59;101360.41;;;6.28;76.85
69574;BME280;62840;52.366;5.980;2023-12-20T01:14:25;101362.28;;;6.26;76.76
69574;BME280;62840;52.366;5.980;2023-12-20T01:16:53;101369.44;;;6.24;76.66
69574;BME280;62840;52.366;5.980;2023-12-20T01:19:19;101364.34;;;6.21;76.80
69574;BME280;62840;52.366;5.980;2023-12-20T01:21:45;101356.53;;;6.18;76.79
69574;BME280;62840;52.366;5.980;2023-12-20T01:24:11;101354.78;;;6.18;76.96
69574;BME280;62840;52.366;5.980;2023-12-20T01:26:37;101354.84;;;6.17;76.75
69574;BME280;62840;52.366;5.980;2023-12-20T01:29:03;101361.94;;;6.16;76.95
69574;BME280;62840;52.366;5.980;2023-12-20T01:31:28;101361.06;;;6.16;77.07
69574;BME280;62840;52.366;5.980;2023-12-20T01:33:57;101351.50;;;6.13;76.93
69574;BME280;62840;52.366;5.980;2023-12-20T01:36:23;101356.81;;;6.13;77.04
69574;BME280;62840;52.366;5.980;2023-12-20T01:38:49;101352.34;;;6.14;76.96
69574;BME280;62840;52.366;5.980;2023-12-20T01:41:14;101347.06;;;6.14;76.98
69574;BME280;62840;52.366;5.980;2023-12-20T01:43:40;101351.50;;;6.13;77.05
69574;BME280;62840;52.366;5.980;2023-12-20T01:46:06;101350.66;;;6.13;76.99
69574;BME280;62840;52.366;5.980;2023-12-20T01:48:33;101345.38;;;6.13;77.16
69574;BME280;62840;52.366;5.980;2023-12-20T01:51:02;101345.38;;;6.13;77.15
69574;BME280;62840;52.366;5.980;2023-12-20T01:53:28;101344.41;;;6.14;77.04
69574;BME280;62840;52.366;5.980;2023-12-20T01:55:56;101341.75;;;6.14;76.98
69574;BME280;62840;52.366;5.980;2023-12-20T01:58:25;101338.19;;;6.15;77.02
69574;BME280;62840;52.366;5.980;2023-12-20T02:00:52;101335.63;;;6.13;77.23
69574;BME280;62840;52.366;5.980;2023-12-20T02:03:19;101350.66;;;6.13;77.13
69574;BME280;62840;52.366;5.980;2023-12-20T02:05:47;101347.06;;;6.14;77.20
69574;BME280;62840;52.366;5.980;2023-12-20T02:08:16;101358.53;;;6.14;77.22
69574;BME280;62840;52.366;5.980;2023-12-20T02:10:41;101354.09;;;6.15;77.17
69574;BME280;62840;52.366;5.980;2023-12-20T02:13:07;101355.00;;;6.14;77.08
69574;BME280;62840;52.366;5.980;2023-12-20T02:15:33;101357.66;;;6.14;77.18
69574;BME280;62840;52.366;5.980;2023-12-20T02:17:59;101348.97;;;6.12;77.27
69574;BME280;62840;52.366;5.980;2023-12-20T02:20:25;101354.09;;;6.15;77.29
69574;BME280;62840;52.366;5.980;2023-12-20T02:22:54;101335.34;;;6.18;77.44
69574;BME280;62840;52.366;5.980;2023-12-20T02:25:19;101330.84;;;6.20;77.50
69574;BME280;62840;52.366;5.980;2023-12-20T02:27:45;101341.94;;;6.26;77.42
69574;BME280;62840;52.366;5.980;2023-12-20T02:30:12;101329.47;;;6.28;77.64
69574;BME280;62840;52.366;5.980;2023-12-20T02:32:38;101317.84;;;6.31;77.49
69574;BME280;62840;52.366;5.980;2023-12-20T02:35:04;101316.72;;;6.35;77.36
69574;BME280;62840;52.366;5.980;2023-12-20T02:37:31;101322.78;;;6.37;77.69
69574;BME280;62840;52.366;5.980;2023-12-20T02:40:00;101325.25;;;6.40;77.41
69574;BME280;62840;52.366;5.980;2023-12-20T02:42:27;101332.28;;;6.41;77.58
69574;BME280;62840;52.366;5.980;2023-12-20T02:44:53;101324.31;;;6.41;77.58
69574;BME280;62840;52.366;5.980;2023-12-20T02:47:18;101318.84;;;6.44;77.59
69574;BME280;62840;52.366;5.980;2023-12-20T02:49:44;101309.00;;;6.46;77.59
69574;BME280;62840;52.366;5.980;2023-12-20T02:52:10;101320.38;;;6.48;77.61
69574;BME280;62840;52.366;5.980;2023-12-20T02:54:36;101300.88;;;6.49;77.64
69574;BME280;62840;52.366;5.980;2023-12-20T02:57:05;101300.88;;;6.49;77.39
69574;BME280;62840;52.366;5.980;2023-12-20T02:59:31;101293.69;;;6.51;77.41
69574;BME280;62840;52.366;5.980;2023-12-20T03:01:57;101293.69;;;6.51;77.52
69574;BME280;62840;52.366;5.980;2023-12-20T03:04:23;101291.81;;;6.54;77.38
69574;BME280;62840;52.366;5.980;2023-12-20T03:06:48;101289.91;;;6.56;77.45
69574;BME280;62840;52.366;5.980;2023-12-20T03:09:14;101288.13;;;6.56;77.54
69574;BME280;62840;52.366;5.980;2023-12-20T03:11:40;101293.34;;;6.58;77.47
69574;BME280;62840;52.366;5.980;2023-12-20T03:14:09;101281.69;;;6.60;77.57
69574;BME280;62840;52.366;5.980;2023-12-20T03:16:34;101286.16;;;6.60;77.53
69574;BME280;62840;52.366;5.980;2023-12-20T03:19:00;101293.16;;;6.61;77.76
69574;BME280;62840;52.366;5.980;2023-12-20T03:21:26;101293.25;;;6.59;77.57
69574;BME280;62840;52.366;5.980;2023-12-20T03:23:52;101287.84;;;6.61;77.47
69574;BME280;62840;52.366;5.980;2023-12-20T03:26:18;101290.41;;;6.62;77.67
69574;BME280;62840;52.366;5.980;2023-12-20T03:28:43;101289.38;;;6.65;77.56
69574;BME280;62840;52.366;5.980;2023-12-20T03:31:12;101295.53;;;6.65;77.61
69574;BME280;62840;52.366;5.980;2023-12-20T03:33:38;101295.44;;;6.67;77.67
69574;BME280;62840;52.366;5.980;2023-12-20T03:36:04;101292.78;;;6.67;77.42
69574;BME280;62840;52.366;5.980;2023-12-20T03:38:30;101286.56;;;6.68;77.38
69574;BME280;62840;52.366;5.980;2023-12-20T03:40:56;101290.13;;;6.67;77.45
69574;BME280;62840;52.366;5.980;2023-12-20T03:43:22;101292.97;;;6.64;77.64
69574;BME280;62840;52.366;5.980;2023-12-20T03:45:48;101298.28;;;6.64;77.64
69574;BME280;62840;52.366;5.980;2023-12-20T03:48:16;101290.41;;;6.62;77.65
69574;BME280;62840;52.366;5.980;2023-12-20T03:50:42;101291.25;;;6.63;77.63
69574;BME280;62840;52.366;5.980;2023-12-20T03:53:08;101293.84;;;6.64;77.72
69574;BME280;62840;52.366;5.980;2023-12-20T03:55:33;101295.63;;;6.64;77.61
69574;BME280;62840;52.366;5.980;2023-12-20T03:57:59;101291.19;;;6.64;77.71
69574;BME280;62840;52.366;5.980;2023-12-20T04:00:25;101293.84;;;6.64;77.49
69574;BME280;62840;52.366;5.980;2023-12-20T04:02:51;101299.22;;;6.63;77.44
69574;BME280;62840;52.366;5.980;2023-12-20T04:05:19;101296.56;;;6.63;77.67
69574;BME280;62840;52.366;5.980;2023-12-20T04:07:45;101303.59;;;6.64;77.58
69574;BME280;62840;52.366;5.980;2023-12-20T04:10:11;101285.97;;;6.63;77.57
69574;BME280;62840;52.366;5.980;2023-12-20T04:12:37;101289.56;;;6.62;77.56
69574;BME280;62840;52.366;5.980;2023-12-20T04:15:04;101285.97;;;6.63;77.73
69574;BME280;62840;52.366;5.980;2023-12-20T04:17:30;101284.06;;;6.65;77.61
69574;BME280;62840;52.366;5.980;2023-12-20T04:19:56;101275.19;;;6.66;77.64
69574;BME280;62840;52.366;5.980;2023-12-20T04:22:24;101277.75;;;6.67;77.77
69574;BME280;62840;52.366;5.980;2023-12-20T04:24:50;101259.09;;;6.69;77.59
69574;BME280;62840;52.366;5.980;2023-12-20T04:27:16;101264.41;;;6.69;77.57
69574;BME280;62840;52.366;5.980;2023-12-20T04:29:42;101248.50;;;6.69;77.78
69574;BME280;62840;52.366;5.980;2023-12-20T04:32:08;101259.09;;;6.69;77.58
69574;BME280;62840;52.366;5.980;2023-12-20T04:34:34;101253.81;;;6.69;77.59
69574;BME280;62840;52.366;5.980;2023-12-20T04:37:00;101262.72;;;6.68;77.56
69574;BME280;62840;52.366;5.980;2023-12-20T04:39:28;101269.69;;;6.69;77.75
69574;BME280;62840;52.366;5.980;2023-12-20T04:41:54;101278.63;;;6.68;77.47
69574;BME280;62840;52.366;5.980;2023-12-20T04:44:20;101269.91;;;6.66;77.79
69574;BME280;62840;52.366;5.980;2023-12-20T04:46:46;101272.53;;;6.66;77.70
69574;BME280;62840;52.366;5.980;2023-12-20T04:49:12;101266.22;;;6.68;77.88
69574;BME280;62840;52.366;5.980;2023-12-20T04:51:38;101259.09;;;6.69;77.72
69574;BME280;62840;52.366;5.980;2023-12-20T04:54:04;101254.47;;;6.72;77.81
69574;BME280;62840;52.366;5.980;2023-12-20T04:56:32;101261.56;;;6.72;77.75
69574;BME280;62840;52.366;5.980;2023-12-20T04:58:58;101251.91;;;6.71;77.80
69574;BME280;62840;52.366;5.980;2023-12-20T05:01:24;101248.50;;;6.69;77.84
69574;BME280;62840;52.366;5.980;2023-12-20T05:03:50;101253.81;;;6.69;77.91
69574;BME280;62840;52.366;5.980;2023-12-20T05:06:16;101261.00;;;6.67;77.86
69574;BME280;62840;52.366;5.980;2023-12-20T05:08:41;101270.75;;;6.66;77.74
69574;BME280;62840;52.366;5.980;2023-12-20T05:11:07;101275.19;;;6.66;77.78
69574;BME280;62840;52.366;5.980;2023-12-20T05:13:36;101274.25;;;6.67;77.79
69574;BME280;62840;52.366;5.980;2023-12-20T05:16:02;101268.94;;;6.67;77.71
69574;BME280;62840;52.366;5.980;2023-12-20T05:18:28;101263.63;;;6.67;77.89
69574;BME280;62840;52.366;5.980;2023-12-20T05:20:54;101261.00;;;6.67;77.91
69574;BME280;62840;52.366;5.980;2023-12-20T05:23:20;101252.09;;;6.68;77.92
69574;BME280;62840;52.366;5.980;2023-12-20T05:25:45;101266.09;;;6.70;77.72
69574;BME280;62840;52.366;5.980;2023-12-20T05:28:11;101248.50;;;6.69;77.77
69574;BME280;62840;52.366;5.980;2023-12-20T05:30:40;101246.63;;;6.71;77.92
69574;BME280;62840;52.366;5.980;2023-12-20T05:33:06;101251.91;;;6.71;77.91
69574;BME280;62840;52.366;5.980;2023-12-20T05:35:31;101243.00;;;6.72;77.84
69574;BME280;62840;52.366;5.980;2023-12-20T05:37:57;101244.72;;;6.73;77.92
69574;BME280;62840;52.366;5.980;2023-12-20T05:40:23;101248.13;;;6.75;77.87
69574;BME280;62840;52.366;5.980;2023-12-20T05:42:49;101251.56;;;6.77;77.93
69574;BME280;62840;52.366;5.980;2023-12-20T05:45:15;101248.78;;;6.79;77.93
69574;BME280;62840;52.366;5.980;2023-12-20T05:47:43;101265.38;;;6.82;77.83
69574;BME280;62840;52.366;5.980;2023-12-20T05:50:09;101245.84;;;6.83;77.85
69574;BME280;62840;52.366;5.980;2023-12-20T05:52:35;101254.56;;;6.85;78.07
69574;BME280;62840;52.366;5.980;2023-12-20T05:55:01;101246.53;;;6.87;77.88
69574;BME280;62840;52.366;5.980;2023-12-20T05:57:28;101250.78;;;6.89;78.13
69574;BME280;62840;52.366;5.980;2023-12-20T05:59:53;101251.47;;;6.93;77.95
69574;BME280;62840;52.366;5.980;2023-12-20T06:02:19;101253.09;;;6.96;78.05
69574;BME280;62840;52.366;5.980;2023-12-20T06:04:48;101238.09;;;6.95;77.89
69574;BME280;62840;52.366;5.980;2023-12-20T06:07:15;101246.81;;;6.97;77.91
69574;BME280;62840;52.366;5.980;2023-12-20T06:09:40;101237.94;;;6.98;77.88
69574;BME280;62840;52.366;5.980;2023-12-20T06:12:07;101243.03;;;7.01;77.96
69574;BME280;62840;52.366;5.980;2023-12-20T06:14:33;101241.16;;;7.03;77.78
69574;BME280;62840;52.366;5.980;2023-12-20T06:16:59;101228.66;;;7.05;77.99
69574;BME280;62840;52.366;5.980;2023-12-20T06:19:25;101233.97;;;7.05;77.71
69574;BME280;62840;52.366;5.980;2023-12-20T06:21:53;101239.25;;;7.05;77.94
69574;BME280;62840;52.366;5.980;2023-12-20T06:24:19;101242.69;;;7.07;77.84
69574;BME280;62840;52.366;5.980;2023-12-20T06:26:45;101233.75;;;7.08;77.78
69574;BME280;62840;52.366;5.980;2023-12-20T06:29:12;101236.31;;;7.09;77.54
69574;BME280;62840;52.366;5.980;2023-12-20T06:31:38;101238.88;;;7.11;77.77
69574;BME280;62840;52.366;5.980;2023-12-20T06:34:04;101229.13;;;7.11;77.93
69574;BME280;62840;52.366;5.980;2023-12-20T06:36:29;101224.66;;;7.12;77.93
69574;BME280;62840;52.366;5.980;2023-12-20T06:38:58;101237.00;;;7.13;77.75
69574;BME280;62840;52.366;5.980;2023-12-20T06:41:24;101229.97;;;7.12;77.74
69574;BME280;62840;52.366;5.980;2023-12-20T06:43:50;101230.72;;;7.14;77.89
69574;BME280;62840;52.366;5.980;2023-12-20T06:46:16;101235.09;;;7.15;77.75
69574;BME280;62840;52.366;5.980;2023-12-20T06:48:41;101231.50;;;7.16;77.82
69574;BME280;62840;52.366;5.980;2023-12-20T06:51:11;101226.19;;;7.16;77.88
69574;BME280;62840;52.366;5.980;2023-12-20T06:53:39;101225.22;;;7.17;77.69
69574;BME280;62840;52.366;5.980;2023-12-20T06:56:10;101225.22;;;7.17;77.75
69574;BME280;62840;52.366;5.980;2023-12-20T06:58:36;101221.66;;;7.18;77.78
69574;BME280;62840;52.366;5.980;2023-12-20T07:01:03;101222.56;;;7.17;77.82
69574;BME280;62840;52.366;5.980;2023-12-20T07:03:29;101218.78;;;7.21;77.87
69574;BME280;62840;52.366;5.980;2023-12-20T07:05:54;101221.44;;;7.21;77.84
69574;BME280;62840;52.366;5.980;2023-12-20T07:08:20;101211.66;;;7.22;77.78
69574;BME280;62840;52.366;5.980;2023-12-20T07:10:46;101212.56;;;7.22;77.66
69574;BME280;62840;52.366;5.980;2023-12-20T07:13:14;101210.66;;;7.24;77.74
69574;BME280;62840;52.366;5.980;2023-12-20T07:15:41;101215.19;;;7.22;77.66
69574;BME280;62840;52.366;5.980;2023-12-20T07:18:06;101211.59;;;7.23;77.69
69574;BME280;62840;52.366;5.980;2023-12-20T07:20:32;101209.78;;;7.24;77.76
69574;BME280;62840;52.366;5.980;2023-12-20T07:22:59;101212.34;;;7.25;77.75
69574;BME280;62840;52.366;5.980;2023-12-20T07:25:25;101202.69;;;7.24;77.77
69574;BME280;62840;52.366;5.980;2023-12-20T07:27:51;101209.69;;;7.25;77.89
69574;BME280;62840;52.366;5.980;2023-12-20T07:30:19;101207.78;;;7.27;77.71
69574;BME280;62840;52.366;5.980;2023-12-20T07:32:45;101206.75;;;7.30;77.53
69574;BME280;62840;52.366;5.980;2023-12-20T07:35:11;101204.84;;;7.32;77.69
69574;BME280;62840;52.366;5.980;2023-12-20T07:37:37;101198.69;;;7.31;77.51
69574;BME280;62840;52.366;5.980;2023-12-20T07:40:03;101192.56;;;7.31;77.47
69574;BME280;62840;52.366;5.980;2023-12-20T07:42:30;101191.50;;;7.33;77.42
69574;BME280;62840;52.366;5.980;2023-12-20T07:44:56;101188.84;;;7.33;77.42
69574;BME280;62840;52.366;5.980;2023-12-20T07:47:24;101185.31;;;7.33;77.57
69574;BME280;62840;52.366;5.980;2023-12-20T07:49:50;101196.81;;;7.33;77.58
69574;BME280;62840;52.366;5.980;2023-12-20T07:52:16;101204.66;;;7.35;77.71
69574;BME280;62840;52.366;5.980;2023-12-20T07:54:42;101204.56;;;7.37;77.29
69574;BME280;62840;52.366;5.980;2023-12-20T07:57:08;101214.06;;;7.41;77.53
69574;BME280;62840;52.366;5.980;2023-12-20T07:59:34;101222.78;;;7.43;77.54
69574;BME280;62840;52.366;5.980;2023-12-20T08:02:00;101224.47;;;7.44;77.49
69574;BME280;62840;52.366;5.980;2023-12-20T08:04:28;101219.16;;;7.44;77.49
69574;BME280;62840;52.366;5.980;2023-12-20T08:06:54;101213.88;;;7.44;77.44
69574;BME280;62840;52.366;5.980;2023-12-20T08:09:20;101220.91;;;7.45;77.40
69574;BME280;62840;52.366;5.980;2023-12-20T08:11:46;101232.25;;;7.47;77.41
69574;BME280;62840;52.366;5.980;2023-12-20T08:14:12;101222.59;;;7.46;77.49
69574;BME280;62840;52.366;5.980;2023-12-20T08:16:39;101229.63;;;7.47;77.44
69574;BME280;62840;52.366;5.980;2023-12-20T08:19:05;101233.03;;;7.49;77.57
69574;BME280;62840;52.366;5.980;2023-12-20T08:21:33;101231.09;;;7.51;77.63
69574;BME280;62840;52.366;5.980;2023-12-20T08:23:59;101226.66;;;7.51;77.59
69574;BME280;62840;52.366;5.980;2023-12-20T08:26:25;101224.84;;;7.52;77.45
69574;BME280;62840;52.366;5.980;2023-12-20T08:28:51;101217.75;;;7.52;77.43
69574;BME280;62840;52.366;5.980;2023-12-20T08:31:17;101217.75;;;7.52;77.58
69574;BME280;62840;52.366;5.980;2023-12-20T08:33:44;101223.72;;;7.56;77.56
69574;BME280;62840;52.366;5.980;2023-12-20T08:36:11;101218.19;;;7.59;77.22
69574;BME280;62840;52.366;5.980;2023-12-20T08:38:40;101228.81;;;7.59;77.56
69574;BME280;62840;52.366;5.980;2023-12-20T08:41:07;101222.56;;;7.60;77.75
69574;BME280;62840;52.366;5.980;2023-12-20T08:43:34;101225.03;;;7.63;77.44
69574;BME280;62840;52.366;5.980;2023-12-20T08:46:00;101231.09;;;7.65;77.47
69574;BME280;62840;52.366;5.980;2023-12-20T08:48:26;101218.66;;;7.66;77.59
69574;BME280;62840;52.366;5.980;2023-12-20T08:50:51;101224.81;;;7.66;77.55
69574;BME280;62840;52.366;5.980;2023-12-20T08:53:17;101223.88;;;7.67;77.58
69574;BME280;62840;52.366;5.980;2023-12-20T08:55:46;101220.25;;;7.68;77.69
69574;BME280;62840;52.366;5.980;2023-12-20T08:58:12;101223.75;;;7.69;77.73
69574;BME280;62840;52.366;5.980;2023-12-20T09:00:38;101209.63;;;7.68;77.72
69574;BME280;62840;52.366;5.980;2023-12-20T09:03:04;101221.97;;;7.69;77.74
69574;BME280;62840;52.366;5.980;2023-12-20T09:05:31;101214.94;;;7.68;77.66
69574;BME280;62840;52.366;5.980;2023-12-20T09:07:57;101221.00;;;7.70;77.78
69574;BME280;62840;52.366;5.980;2023-12-20T09:10:23;101227.84;;;7.74;77.84
69574;BME280;62840;52.366;5.980;2023-12-20T09:12:52;101220.81;;;7.73;77.80
69574;BME280;62840;52.366;5.980;2023-12-20T09:15:19;101221.47;;;7.77;77.79
69574;BME280;62840;52.366;5.980;2023-12-20T09:17:44;101222.31;;;7.78;77.90
69574;BME280;62840;52.366;5.980;2023-12-20T09:20:10;101220.41;;;7.80;77.60
69574;BME280;62840;52.366;5.980;2023-12-20T09:22:36;101222.13;;;7.81;77.65
69574;BME280;62840;52.366;5.980;2023-12-20T09:25:02;101213.19;;;7.82;77.55
69574;BME280;62840;52.366;5.980;2023-12-20T09:27:29;101215.78;;;7.83;77.43
69574;BME280;62840;52.366;5.980;2023-12-20T09:29:57;101214.72;;;7.86;77.66
69574;BME280;62840;52.366;5.980;2023-12-20T09:32:23;101214.72;;;7.86;77.47
69574;BME280;62840;52.366;5.980;2023-12-20T09:34:49;101216.41;;;7.87;77.44
69574;BME280;62840;52.366;5.980;2023-12-20T09:37:15;101219.81;;;7.89;77.45
69574;BME280;62840;52.366;5.980;2023-12-20T09:39:41;101217.91;;;7.91;77.59
69574;BME280;62840;52.366;5.980;2023-12-20T09:42:07;101211.53;;;7.93;77.50
69574;BME280;62840;52.366;5.980;2023-12-20T09:44:34;101216.84;;;7.93;77.44
69574;BME280;62840;52.366;5.980;2023-12-20T09:47:03;101210.47;;;7.96;77.49
69574;BME280;62840;52.366;5.980;2023-12-20T09:49:30;101236.09;;;7.97;77.26
69574;BME280;62840;52.366;5.980;2023-12-20T09:52:00;101229.84;;;7.98;77.17
69574;BME280;62840;52.366;5.980;2023-12-20T09:54:27;101238.56;;;8.00;77.17
69574;BME280;62840;52.366;5.980;2023-12-20T09:56:54;101240.28;;;8.01;77.30
69574;BME280;62840;52.366;5.980;2023-12-20T09:59:20;101236.66;;;8.02;77.26
69574;BME280;62840;52.366;5.980;2023-12-20T10:01:46;101235.81;;;8.02;77.09
69574;BME280;62840;52.366;5.980;2023-12-20T10:04:15;101233.06;;;8.03;77.01
69574;BME280;62840;52.366;5.980;2023-12-20T10:06:42;101231.34;;;8.02;77.07
69574;BME280;62840;52.366;5.980;2023-12-20T10:09:09;101227.75;;;8.03;77.08
69574;BME280;62840;52.366;5.980;2023-12-20T10:11:35;101232.00;;;8.06;76.96
69574;BME280;62840;52.366;5.980;2023-12-20T10:14:01;101241.47;;;8.10;77.15
69574;BME280;62840;52.366;5.980;2023-12-20T10:16:28;101234.34;;;8.10;77.23
69574;BME280;62840;52.366;5.980;2023-12-20T10:18:54;101241.16;;;8.14;77.18
69574;BME280;62840;52.366;5.980;2023-12-20T10:21:23;101240.00;;;8.18;77.17
69574;BME280;62840;52.366;5.980;2023-12-20T10:23:49;101228.97;;;8.25;77.02
69574;BME280;62840;52.366;5.980;2023-12-20T10:26:19;101230.47;;;8.29;76.95
69574;BME280;62840;52.366;5.980;2023-12-20T10:28:45;101224.00;;;8.33;76.83
69574;BME280;62840;52.366;5.980;2023-12-20T10:31:26;101232.72;;;8.35;76.94
69574;BME280;62840;52.366;5.980;2023-12-20T10:33:52;101219.53;;;8.33;76.80
69574;BME280;62840;52.366;5.980;2023-12-20T10:36:18;101235.06;;;8.40;76.64
69574;BME280;62840;52.366;5.980;2023-12-20T10:38:46;101230.38;;;8.43;76.38
69574;BME280;62840;52.366;5.980;2023-12-20T10:41:21;101225.72;;;8.47;76.48
69574;BME280;62840;52.366;5.980;2023-12-20T10:43:51;101216.59;;;8.51;76.29
69574;BME280;62840;52.366;5.980;2023-12-20T10:46:18;101216.38;;;8.54;76.34
69574;BME280;62840;52.366;5.980;2023-12-20T10:48:45;101210.88;;;8.57;76.38
69574;BME280;62840;52.366;5.980;2023-12-20T10:51:13;101200.84;;;8.61;76.41
69574;BME280;62840;52.366;5.980;2023-12-20T10:53:45;101201.50;;;8.64;76.42
69574;BME280;62840;52.366;5.980;2023-12-20T10:56:16;101204.03;;;8.66;76.42
69574;BME280;62840;52.366;5.980;2023-12-20T10:58:43;101193.22;;;8.69;76.55
69574;BME280;62840;52.366;5.980;2023-12-20T11:01:12;101191.28;;;8.71;76.54
69574;BME280;62840;52.366;5.980;2023-12-20T11:03:43;101191.06;;;8.74;76.43
69574;BME280;62840;52.366;5.980;2023-12-20T11:06:20;101190.84;;;8.77;76.24
69574;BME280;62840;52.366;5.980;2023-12-20T11:09:04;101188.31;;;8.75;76.27
69574;BME280;62840;52.366;5.980;2023-12-20T11:11:49;101185.75;;;8.74;76.28
69574;BME280;62840;52.366;5.980;2023-12-20T11:14:29;101184.91;;;8.73;76.42
69574;BME280;62840;52.366;5.980;2023-12-20T11:17:08;101184.81;;;8.75;76.56
69574;BME280;62840;52.366;5.980;2023-12-20T11:19:36;101182.16;;;8.75;76.35
69574;BME280;62840;52.366;5.980;2023-12-20T11:22:04;101178.53;;;8.76;76.18
69574;BME280;62840;52.366;5.980;2023-12-20T11:24:33;101171.53;;;8.75;76.03
69574;BME280;62840;52.366;5.980;2023-12-20T11:27:00;101162.56;;;8.76;75.84
69574;BME280;62840;52.366;5.980;2023-12-20T11:29:29;101157.91;;;8.79;76.08
69574;BME280;62840;52.366;5.980;2023-12-20T11:32:00;101167.34;;;8.84;76.00
69574;BME280;62840;52.366;5.980;2023-12-20T11:34:27;101167.00;;;8.88;75.92
69574;BME280;62840;52.366;5.980;2023-12-20T11:36:57;101162.56;;;8.89;75.66
69574;BME280;62840;52.366;5.980;2023-12-20T11:39:23;101164.34;;;8.88;75.83
69574;BME280;62840;52.366;5.980;2023-12-20T11:41:54;101151.94;;;8.89;75.85
69574;BME280;62840;52.366;5.980;2023-12-20T11:44:21;101147.69;;;8.86;75.59
69574;BME280;62840;52.366;5.980;2023-12-20T11:46:47;101160.00;;;8.87;75.67
69574;BME280;62840;52.366;5.980;2023-12-20T11:49:12;101159.91;;;8.89;75.65
69574;BME280;62840;52.366;5.980;2023-12-20T11:51:40;101154.25;;;8.93;75.55
69574;BME280;62840;52.366;5.980;2023-12-20T11:54:06;101153.09;;;8.97;75.50
69574;BME280;62840;52.366;5.980;2023-12-20T11:56:32;101158.94;;;9.03;75.49
69574;BME280;62840;52.366;5.980;2023-12-20T11:59:01;101151.69;;;9.05;75.24
69574;BME280;62840;52.366;5.980;2023-12-20T12:01:27;101156.13;;;9.04;75.09
69574;BME280;62840;52.366;5.980;2023-12-20T12:04:02;101156.03;;;9.06;75.00
69574;BME280;62840;52.366;5.980;2023-12-20T12:06:28;101148.06;;;9.06;74.96
69574;BME280;62840;52.366;5.980;2023-12-20T12:08:54;101152.53;;;9.05;74.70
69574;BME280;62840;52.366;5.980;2023-12-20T12:11:20;101141.03;;;9.05;74.58
69574;BME280;62840;52.366;5.980;2023-12-20T12:13:46;101151.69;;;9.05;74.69
69574;BME280;62840;52.366;5.980;2023-12-20T12:16:17;101149.97;;;9.04;74.48
69574;BME280;62840;52.366;5.980;2023-12-20T12:18:43;101155.28;;;9.04;74.76
69574;BME280;62840;52.366;5.980;2023-12-20T12:21:08;101135.94;;;9.01;74.62
69574;BME280;62840;52.366;5.980;2023-12-20T12:23:34;101132.53;;;8.99;74.90
69574;BME280;62840;52.366;5.980;2023-12-20T12:26:03;101129.16;;;8.97;74.97
69574;BME280;62840;52.366;5.980;2023-12-20T12:28:29;101123.84;;;8.97;74.88
69574;BME280;62840;52.366;5.980;2023-12-20T12:30:58;101124.03;;;8.94;74.64
69574;BME280;62840;52.366;5.980;2023-12-20T12:33:28;101129.34;;;8.94;74.96
69574;BME280;62840;52.366;5.980;2023-12-20T12:35:55;101127.66;;;8.93;74.88
69574;BME280;62840;52.366;5.980;2023-12-20T12:38:21;101121.38;;;8.94;74.80
69574;BME280;62840;52.366;5.980;2023-12-20T12:40:47;101110.72;;;8.94;74.93
69574;BME280;62840;52.366;5.980;2023-12-20T12:43:13;101116.78;;;8.96;74.78
69574;BME280;62840;52.366;5.980;2023-12-20T12:45:38;101122.97;;;8.97;74.58
69574;BME280;62840;52.366;5.980;2023-12-20T12:48:06;101120.44;;;8.95;74.70
69574;BME280;62840;52.366;5.980;2023-12-20T12:50:35;101115.94;;;8.96;74.82
69574;BME280;62840;52.366;5.980;2023-12-20T12:53:01;101107.88;;;8.97;74.85
69574;BME280;62840;52.366;5.980;2023-12-20T12:55:27;101114.88;;;8.98;74.72
69574;BME280;62840;52.366;5.980;2023-12-20T12:57:52;101107.88;;;8.97;74.69